Time;durP1;ratioP1;P1;durP2;ratioP2;P2;SDS_P1;SDS_P2;PMS_P1;PMS_P2;Temp;Humidity;BMP_temperature;BMP_pressure;BME280_temperature;BME280_humidity;BME280_pressure;Samples;Min_cycle;Max_cycle;Signal;HPM_P1;HPM_P2
2021/04/07 00:00:29;;;;;;;25.52;14.63;;;;;;;-4.85;77.40;95004.66;3586100;39;20052;-55
2021/04/07 00:02:57;;;;;;;20.10;12.10;;;;;;;-4.86;77.01;95007.41;3585118;39;20048;-54
2021/04/07 00:05:33;;;;;;;28.23;14.82;;;;;;;-4.89;76.98;95015.47;3583566;39;20056;-54
2021/04/07 00:08:01;;;;;;;26.02;13.75;;;;;;;-4.83;77.15;95012.16;3582079;39;20051;-54
2021/04/07 00:10:33;;;;;;;27.10;14.48;;;;;;;-4.84;76.65;95018.28;3584521;39;20052;-54
2021/04/07 00:13:01;;;;;;;24.70;13.63;;;;;;;-4.85;76.95;95019.28;3588742;39;20055;-54
2021/04/07 00:15:28;;;;;;;27.35;15.00;;;;;;;-4.88;76.89;95015.28;3584387;39;20060;-54
2021/04/07 00:17:57;;;;;;;24.52;13.65;;;;;;;-4.87;76.95;95022.03;3574933;39;20102;-55
2021/04/07 00:20:28;;;;;;;25.20;14.25;;;;;;;-4.92;76.70;95013.25;3582443;39;20053;-54
2021/04/07 00:22:56;;;;;;;23.15;16.08;;;;;;;-4.89;76.68;95018.06;3585466;39;20041;-55
2021/04/07 00:25:25;;;;;;;22.92;14.55;;;;;;;-4.91;76.65;95012.28;3586238;39;21728;-54
2021/04/07 00:27:58;;;;;;;28.50;14.30;;;;;;;-4.91;76.80;95017.44;3582274;39;20062;-54
2021/04/07 00:30:30;;;;;;;20.83;14.70;;;;;;;-4.92;76.68;95015.84;3584179;39;20028;-54
2021/04/07 00:32:58;;;;;;;29.30;16.85;;;;;;;-4.97;76.62;95019.75;3599415;39;20036;-55
2021/04/07 00:35:27;;;;;;;27.08;13.73;;;;;;;-5.01;76.48;95025.44;3588456;39;20206;-54
2021/04/07 00:37:54;;;;;;;21.48;12.65;;;;;;;-5.05;76.64;95029.34;3584947;39;20040;-55
2021/04/07 00:40:22;;;;;;;26.00;13.93;;;;;;;-5.06;76.67;95032.91;3583724;39;20329;-54
2021/04/07 00:42:52;;;;;;;23.00;13.65;;;;;;;-5.06;76.58;95033.69;3586518;39;20067;-55
2021/04/07 00:45:20;;;;;;;25.55;13.95;;;;;;;-5.07;76.58;95031.31;3584300;39;20053;-54
2021/04/07 00:47:49;;;;;;;24.63;14.50;;;;;;;-5.08;76.58;95027.13;3583739;39;20048;-55
2021/04/07 00:50:18;;;;;;;23.13;13.65;;;;;;;-5.06;76.49;95028.53;3584215;39;20059;-54
2021/04/07 00:52:47;;;;;;;26.17;12.77;;;;;;;-5.13;76.72;95018.19;3584408;39;20072;-55
2021/04/07 00:55:23;;;;;;;19.98;11.43;;;;;;;-5.09;76.70;95028.88;3583628;39;20048;-54
2021/04/07 00:57:51;;;;;;;22.88;13.15;;;;;;;-5.08;77.22;95033.06;3579835;39;20048;-55
2021/04/07 01:00:19;;;;;;;25.63;12.18;;;;;;;-5.08;77.29;95033.06;3581520;39;20060;-55
2021/04/07 01:02:52;;;;;;;20.58;12.98;;;;;;;-5.07;77.19;95036.44;3584835;39;20055;-55
2021/04/07 01:05:20;;;;;;;23.65;13.38;;;;;;;-5.07;77.40;95031.31;3585195;39;20395;-54
2021/04/07 01:07:48;;;;;;;27.35;13.45;;;;;;;-5.06;76.90;95031.13;3585517;39;20056;-55
2021/04/07 01:10:19;;;;;;;21.35;12.85;;;;;;;-5.09;76.89;95031.47;3584720;39;20055;-54
2021/04/07 01:12:46;;;;;;;25.30;14.35;;;;;;;-5.13;76.57;95036.16;3586527;39;20040;-54
2021/04/07 01:15:15;;;;;;;26.98;16.33;;;;;;;-5.17;76.45;95034.94;3582299;39;20034;-54
2021/04/07 01:17:42;;;;;;;26.45;16.55;;;;;;;-5.22;75.94;95039.81;3584198;39;20054;-56
2021/04/07 01:20:15;;;;;;;29.77;16.15;;;;;;;-5.34;76.62;95044.59;3595215;39;20049;-54
2021/04/07 01:22:47;;;;;;;22.98;14.20;;;;;;;-5.34;76.98;95041.25;3583971;39;20050;-54
2021/04/07 01:25:15;;;;;;;21.90;13.70;;;;;;;-5.38;77.07;95035.66;3582421;39;20052;-54
2021/04/07 01:27:42;;;;;;;22.20;14.15;;;;;;;-5.44;77.46;95036.38;3585875;39;20050;-54
2021/04/07 01:30:15;;;;;;;26.58;14.65;;;;;;;-5.48;77.86;95024.88;3585457;39;20078;-55
2021/04/07 01:32:43;;;;;;;27.33;15.63;;;;;;;-5.48;77.63;95033.34;3582792;40;20061;-54
2021/04/07 01:35:13;;;;;;;30.55;16.77;;;;;;;-5.50;77.78;95030.16;3583121;39;20077;-55
2021/04/07 01:37:41;;;;;;;30.20;17.10;;;;;;;-5.49;77.91;95034.34;3585236;39;20060;-56
2021/04/07 01:40:16;;;;;;;32.03;17.50;;;;;;;-5.46;77.76;95033.16;3584742;39;20321;-54
2021/04/07 01:42:45;;;;;;;27.90;16.07;;;;;;;-5.49;77.23;95025.84;3582491;39;20059;-55
2021/04/07 01:45:14;;;;;;;29.92;16.02;;;;;;;-5.51;77.19;95032.91;3588506;39;20418;-55
2021/04/07 01:47:44;;;;;;;26.23;15.32;;;;;;;-5.53;77.27;95037.44;3584796;39;20044;-54
2021/04/07 01:50:12;;;;;;;31.58;17.15;;;;;;;-5.59;77.50;95032.00;3584264;39;20048;-54
2021/04/07 01:52:40;;;;;;;26.05;15.02;;;;;;;-5.61;77.85;95031.41;3598827;39;20050;-54
2021/04/07 01:55:08;;;;;;;26.10;15.38;;;;;;;-5.61;78.28;95041.69;3585676;39;20044;-55
2021/04/07 01:57:36;;;;;;;28.23;15.48;;;;;;;-5.60;78.29;95035.56;3587744;39;20710;-54
2021/04/07 02:00:12;;;;;;;32.00;15.75;;;;;;;-5.66;77.63;95045.75;3585826;39;20052;-55
2021/04/07 02:02:39;;;;;;;24.48;14.02;;;;;;;-5.68;77.88;95037.44;3589313;39;20059;-54
2021/04/07 02:05:08;;;;;;;29.08;14.75;;;;;;;-5.70;78.04;95053.00;3586002;39;20044;-54
2021/04/07 02:07:35;;;;;;;25.17;15.35;;;;;;;-5.68;77.99;95045.91;3586713;39;20051;-55
2021/04/07 02:10:09;;;;;;;26.13;13.25;;;;;;;-5.66;78.22;95050.91;3585338;39;20054;-54
2021/04/07 02:12:37;;;;;;;29.42;14.73;;;;;;;-5.63;78.33;95048.78;3594798;39;20121;-54
2021/04/07 02:15:07;;;;;;;24.17;12.70;;;;;;;-5.62;77.72;95058.09;3585134;39;20040;-54
2021/04/07 02:17:35;;;;;;;22.83;10.68;;;;;;;-5.61;77.87;95053.72;3584004;39;20364;-55
2021/04/07 02:20:03;;;;;;;23.73;13.32;;;;;;;-5.63;77.46;95051.34;3584857;39;20093;-54
2021/04/07 02:22:31;;;;;;;22.50;13.70;;;;;;;-5.73;77.09;95059.28;3584024;39;20055;-55
2021/04/07 02:24:58;;;;;;;21.73;13.95;;;;;;;-5.83;77.41;95055.38;3586175;39;20082;-55
2021/04/07 02:27:26;;;;;;;19.33;13.00;;;;;;;-5.85;77.75;95060.69;3584577;39;20056;-55
2021/04/07 02:29:56;;;;;;;21.55;13.57;;;;;;;-5.87;77.45;95052.34;3586251;39;20246;-53
2021/04/07 02:32:24;;;;;;;18.33;11.95;;;;;;;-5.88;77.78;95061.84;3580763;39;22423;-54
2021/04/07 02:34:52;;;;;;;16.13;11.60;;;;;;;-5.87;78.55;95049.78;3588778;39;20032;-53
2021/04/07 02:37:20;;;;;;;14.40;9.38;;;;;;;-5.85;78.62;95049.63;3583866;39;20068;-54
2021/04/07 02:39:48;;;;;;;14.82;10.85;;;;;;;-5.85;78.37;95049.63;3584581;39;20051;-54
2021/04/07 02:42:21;;;;;;;18.45;10.65;;;;;;;-5.85;78.52;95049.63;3583759;39;20163;-55
2021/04/07 02:44:48;;;;;;;15.63;9.65;;;;;;;-5.84;78.26;95057.16;3575037;40;20058;-54
2021/04/07 02:47:16;;;;;;;19.48;10.90;;;;;;;-5.90;77.84;95050.13;3584716;39;20058;-54
2021/04/07 02:49:45;;;;;;;18.92;10.68;;;;;;;-5.95;78.02;95058.34;3595986;39;20044;-54
2021/04/07 02:52:12;;;;;;;17.48;11.40;;;;;;;-5.97;78.01;95052.63;3582260;40;20048;-54
2021/04/07 02:54:40;;;;;;;18.27;10.93;;;;;;;-5.97;78.80;95055.19;3582861;39;20052;-54
2021/04/07 02:57:07;;;;;;;17.80;12.98;;;;;;;-5.99;79.01;95059.69;3576982;40;20055;-54
2021/04/07 02:59:35;;;;;;;15.23;10.20;;;;;;;-6.06;78.17;95059.63;3589343;39;20044;-57
2021/04/07 03:02:05;;;;;;;16.63;9.98;;;;;;;-6.07;78.34;95062.34;3582568;39;20050;-53
2021/04/07 03:04:33;;;;;;;15.52;11.40;;;;;;;-6.07;78.53;95064.91;3583248;39;20062;-53
2021/04/07 03:07:01;;;;;;;14.57;10.35;;;;;;;-6.04;78.90;95059.44;3584171;39;20060;-54
2021/04/07 03:09:29;;;;;;;18.63;11.98;;;;;;;-6.04;78.31;95056.88;3590431;39;20056;-53
2021/04/07 03:11:56;;;;;;;14.57;10.57;;;;;;;-6.07;78.13;95059.78;3588867;39;21968;-55
2021/04/07 03:14:23;;;;;;;15.52;11.13;;;;;;;-5.99;78.65;95069.19;3581198;39;20159;-54
2021/04/07 03:16:51;;;;;;;19.73;12.27;;;;;;;-6.02;79.12;95065.97;3579263;39;20044;-54
2021/04/07 03:19:18;;;;;;;14.13;10.02;;;;;;;-6.11;78.22;95066.25;3579915;39;20075;-54
2021/04/07 03:21:45;;;;;;;19.95;10.20;;;;;;;-6.14;78.32;95074.28;3582377;39;20060;-53
2021/04/07 03:24:13;;;;;;;18.52;12.68;;;;;;;-6.16;78.46;95079.59;3581223;39;20076;-56
2021/04/07 03:26:40;;;;;;;18.17;11.88;;;;;;;-6.15;78.42;95083.72;3582037;39;20057;-55
2021/04/07 03:29:08;;;;;;;24.13;12.57;;;;;;;-6.14;78.34;95087.13;3587931;39;20637;-56
2021/04/07 03:31:35;;;;;;;23.38;12.90;;;;;;;-6.13;78.43;95089.50;3583134;39;20048;-53
2021/04/07 03:34:03;;;;;;;23.70;14.13;;;;;;;-6.13;78.79;95096.41;3586077;39;20050;-54
2021/04/07 03:36:30;;;;;;;22.45;12.23;;;;;;;-6.13;79.01;95096.41;3586049;39;20044;-54
2021/04/07 03:38:57;;;;;;;19.08;11.95;;;;;;;-6.13;79.18;95093.84;3585814;39;20060;-54
2021/04/07 03:41:25;;;;;;;25.27;14.52;;;;;;;-6.19;79.00;95091.00;3579099;39;20566;-54
2021/04/07 03:43:52;;;;;;;23.27;13.50;;;;;;;-6.19;79.08;95091.00;3582476;39;20153;-54
2021/04/07 03:46:20;;;;;;;17.92;12.07;;;;;;;-6.15;78.99;95086.31;3584867;39;20479;-54
2021/04/07 03:48:47;;;;;;;20.45;13.13;;;;;;;-6.12;78.61;95095.44;3584632;39;20321;-55
2021/04/07 03:51:15;;;;;;;21.08;13.00;;;;;;;-6.14;78.30;95087.13;3584593;39;20045;-55
2021/04/07 03:53:42;;;;;;;26.60;14.57;;;;;;;-6.25;78.44;95086.56;3575654;39;20058;-55
2021/04/07 03:56:10;;;;;;;18.48;13.73;;;;;;;-6.29;78.72;95092.19;3583505;39;20054;-53
2021/04/07 03:58:38;;;;;;;20.92;12.60;;;;;;;-6.32;79.03;95090.75;3578981;40;20052;-54
2021/04/07 04:01:05;;;;;;;18.70;11.88;;;;;;;-6.26;78.75;95097.78;3581746;39;20313;-54
2021/04/07 04:03:33;;;;;;;17.60;12.38;;;;;;;-6.25;79.01;95096.81;3587044;39;20067;-54
2021/04/07 04:06:00;;;;;;;19.70;13.88;;;;;;;-6.30;79.21;95096.53;3575832;39;20792;-53
2021/04/07 04:08:28;;;;;;;23.60;13.85;;;;;;;-6.25;79.64;95104.53;3586367;39;20060;-54
2021/04/07 04:10:56;;;;;;;24.30;12.90;;;;;;;-6.22;79.62;95098.25;3584349;39;20056;-54
2021/04/07 04:13:24;;;;;;;22.88;12.70;;;;;;;-6.28;79.35;95102.28;3575415;39;20052;-54
2021/04/07 04:15:51;;;;;;;23.90;15.02;;;;;;;-6.26;79.67;95109.81;3584398;39;20812;-53
2021/04/07 04:18:19;;;;;;;28.25;16.00;;;;;;;-6.21;79.55;95113.47;3583080;39;20058;-54
2021/04/07 04:20:46;;;;;;;26.95;13.43;;;;;;;-6.15;79.33;95116.31;3585844;39;20057;-54
2021/04/07 04:23:13;;;;;;;27.15;15.98;;;;;;;-6.33;79.57;95114.81;3582306;39;20040;-54
2021/04/07 04:25:40;;;;;;;25.45;15.55;;;;;;;-6.34;79.72;95114.03;3585323;40;20058;-54
2021/04/07 04:28:08;;;;;;;25.98;15.40;;;;;;;-6.36;79.91;95115.97;3591822;39;20054;-55
2021/04/07 04:30:36;;;;;;;23.25;13.63;;;;;;;-6.40;80.45;95113.91;3584994;39;20040;-54
2021/04/07 04:33:03;;;;;;;29.10;15.20;;;;;;;-6.40;81.14;95124.16;3583955;39;20047;-54
2021/04/07 04:35:31;;;;;;;24.20;13.35;;;;;;;-6.36;80.64;95130.56;3584483;39;20079;-54
2021/04/07 04:37:58;;;;;;;19.17;9.88;;;;;;;-6.21;80.59;95144.25;3585066;40;20064;-54
2021/04/07 04:40:26;;;;;;;27.60;16.08;;;;;;;-6.16;82.12;95142.97;3592098;39;20410;-54
2021/04/07 04:42:53;;;;;;;22.75;14.75;;;;;;;-6.10;81.94;95148.22;3595892;39;20073;-54
2021/04/07 04:45:21;;;;;;;28.77;12.55;;;;;;;-6.05;81.72;95143.38;3580622;39;20040;-54
2021/04/07 04:47:48;;;;;;;19.58;13.50;;;;;;;-5.94;81.81;95154.19;3583067;39;20048;-54
2021/04/07 04:50:15;;;;;;;21.35;14.07;;;;;;;-5.83;82.02;95156.34;3582919;39;20325;-55
2021/04/07 04:52:42;;;;;;;31.35;16.65;;;;;;;-5.75;81.94;95151.16;3584157;39;20042;-55
2021/04/07 04:55:10;;;;;;;42.10;24.80;;;;;;;-5.63;81.77;95166.97;3581178;39;20035;-55
2021/04/07 04:57:38;;;;;;;39.33;22.27;;;;;;;-5.48;81.63;95163.63;3575923;40;20062;-55
2021/04/07 05:00:07;;;;;;;54.08;28.25;;;;;;;-5.34;81.86;95167.19;3593957;39;20056;-54
2021/04/07 05:02:35;;;;;;;34.90;22.05;;;;;;;-5.22;80.46;95162.41;3583963;39;20062;-61
2021/04/07 05:05:04;;;;;;;39.92;23.13;;;;;;;-5.12;80.92;95157.84;3583819;39;20657;-54
2021/04/07 05:07:31;;;;;;;39.28;23.27;;;;;;;-4.99;81.62;95167.50;3574100;40;20276;-55
2021/04/07 05:09:59;;;;;;;44.13;23.92;;;;;;;-4.90;81.20;95163.88;3577034;39;20427;-58
2021/04/07 05:12:26;;;;;;;37.08;21.67;;;;;;;-4.73;80.70;95167.06;3588827;39;20055;-55
2021/04/07 05:14:53;;;;;;;32.00;17.85;;;;;;;-4.60;79.33;95175.91;3574866;40;20051;-55
2021/04/07 05:17:21;;;;;;;26.48;17.15;;;;;;;-4.47;78.12;95170.94;3584589;39;20167;-55
2021/04/07 05:19:49;;;;;;;22.38;16.35;;;;;;;-4.38;77.37;95172.47;3581004;39;20060;-54
2021/04/07 05:22:17;;;;;;;25.67;16.38;;;;;;;-4.32;77.14;95174.28;3584880;39;20048;-54
2021/04/07 05:24:44;;;;;;;23.65;17.17;;;;;;;-4.17;76.94;95170.91;3590590;39;20496;-55
2021/04/07 05:27:12;;;;;;;22.50;14.32;;;;;;;-4.07;76.46;95175.75;3592342;39;20052;-55
2021/04/07 05:29:40;;;;;;;27.02;14.80;;;;;;;-4.07;76.90;95176.56;3582438;39;20054;-55
2021/04/07 05:32:08;;;;;;;22.50;14.95;;;;;;;-4.03;77.11;95177.78;3586090;39;20032;-53
2021/04/07 05:34:36;;;;;;;21.00;14.55;;;;;;;-3.98;77.82;95176.44;3582694;39;20056;-53
2021/04/07 05:37:03;;;;;;;29.60;17.42;;;;;;;-3.98;78.36;95173.84;3584006;39;20059;-54
2021/04/07 05:39:31;;;;;;;23.63;15.18;;;;;;;-3.89;77.80;95175.34;3586155;39;20062;-54
2021/04/07 05:41:58;;;;;;;25.80;15.73;;;;;;;-3.84;77.67;95183.31;3584809;39;20044;-54
2021/04/07 05:44:25;;;;;;;25.20;16.02;;;;;;;-3.79;77.38;95183.56;3592883;39;20540;-55
2021/04/07 05:46:53;;;;;;;24.08;15.02;;;;;;;-3.62;76.89;95185.88;3583873;39;20075;-53
2021/04/07 05:49:20;;;;;;;23.02;15.07;;;;;;;-3.52;76.34;95190.75;3583759;39;20060;-55
2021/04/07 05:51:47;;;;;;;25.40;17.73;;;;;;;-3.46;76.89;95193.38;3584930;39;20062;-54
2021/04/07 05:54:14;;;;;;;34.60;17.15;;;;;;;-3.40;76.57;95192.66;3586813;39;20048;-54
2021/04/07 05:56:42;;;;;;;26.55;17.80;;;;;;;-3.34;77.59;95195.44;3585275;39;20044;-55
2021/04/07 05:59:10;;;;;;;33.88;20.10;;;;;;;-3.23;78.54;95194.94;3587031;39;20077;-54
2021/04/07 06:01:37;;;;;;;31.60;20.10;;;;;;;-3.14;77.62;95193.81;3582550;39;20040;-55
2021/04/07 06:04:05;;;;;;;24.92;16.85;;;;;;;-3.10;74.54;95200.22;3581520;39;20537;-56
2021/04/07 06:06:32;;;;;;;28.17;18.05;;;;;;;-3.01;74.16;95197.47;3580424;39;20141;-53
2021/04/07 06:09:00;;;;;;;26.58;17.90;;;;;;;-2.85;73.62;95201.56;3581869;39;20048;-56
2021/04/07 06:11:27;;;;;;;27.52;17.88;;;;;;;-2.72;73.60;95206.00;3585676;39;20062;-54
2021/04/07 06:13:54;;;;;;;26.88;16.33;;;;;;;-2.63;72.65;95207.44;3584549;39;20049;-54
2021/04/07 06:16:22;;;;;;;21.92;14.93;;;;;;;-2.63;72.52;95208.25;3586746;39;20070;-57
2021/04/07 06:18:51;;;;;;;26.00;15.68;;;;;;;-2.58;74.46;95204.28;3589367;39;20059;-54
2021/04/07 06:21:18;;;;;;;21.33;12.63;;;;;;;-2.47;72.09;95201.19;3587048;39;20591;-56
2021/04/07 06:23:45;;;;;;;25.45;15.30;;;;;;;-2.21;73.27;95205.69;3585518;39;20056;-55
2021/04/07 06:26:13;;;;;;;24.38;15.35;;;;;;;-2.02;70.78;95209.31;3583743;39;20048;-55
2021/04/07 06:28:40;;;;;;;24.70;16.90;;;;;;;-1.84;72.74;95207.97;3584316;40;20062;-57
2021/04/07 06:31:08;;;;;;;25.02;17.25;;;;;;;-1.71;73.86;95204.63;3585306;39;20054;-55
2021/04/07 06:33:37;;;;;;;26.05;15.10;;;;;;;-1.57;71.45;95205.44;3593481;39;20401;-54
2021/04/07 06:36:07;;;;;;;22.05;15.00;;;;;;;-1.52;70.87;95205.66;3586265;39;20056;-56
2021/04/07 06:38:37;;;;;;;21.90;16.73;;;;;;;-1.50;70.03;95210.63;3585776;39;20063;-61
2021/04/07 06:41:07;;;;;;;22.17;17.48;;;;;;;-1.37;71.76;95200.31;3577489;40;20435;-53
2021/04/07 06:43:34;;;;;;;24.42;15.88;;;;;;;-1.17;70.45;95204.69;3586049;40;20066;-60
2021/04/07 06:46:05;;;;;;;25.00;14.38;;;;;;;-1.08;69.18;95201.69;3583722;39;20047;-54
2021/04/07 06:48:32;;;;;;;27.75;15.90;;;;;;;-1.08;70.42;95195.72;3586429;39;20048;-55
2021/04/07 06:51:01;;;;;;;26.65;17.27;;;;;;;-0.91;70.59;95203.88;3584804;40;20321;-54
2021/04/07 06:53:30;;;;;;;23.08;15.75;;;;;;;-0.69;70.44;95212.22;3587459;39;20054;-54
2021/04/07 06:55:58;;;;;;;33.22;18.27;;;;;;;-0.44;69.20;95201.22;3583056;39;20037;-56
2021/04/07 06:58:25;;;;;;;30.95;19.20;;;;;;;-0.22;68.26;95206.91;3585331;39;20036;-55
2021/04/07 07:00:53;;;;;;;25.75;18.67;;;;;;;-0.14;69.18;95203.28;3584288;39;20036;-53
2021/04/07 07:03:20;;;;;;;43.72;24.17;;;;;;;0.10;67.42;95203.59;3587243;39;20049;-57
2021/04/07 07:05:50;;;;;;;47.80;27.95;;;;;;;0.51;66.62;95204.97;3588905;39;20300;-54
2021/04/07 07:08:37;;;;;;;56.25;28.67;;;;;;;0.97;64.99;95203.06;3579125;40;20050;-55
2021/04/07 07:11:14;;;;;;;45.25;23.63;;;;;;;1.20;64.66;95212.81;3588342;39;20040;-57
2021/04/07 07:13:42;;;;;;;30.95;19.92;;;;;;;1.37;63.30;95207.09;3594733;39;20402;-55
2021/04/07 07:16:12;;;;;;;32.78;18.05;;;;;;;1.38;62.41;95201.66;3596411;39;20053;-55
2021/04/07 07:18:43;;;;;;;22.25;14.30;;;;;;;1.44;59.77;95205.22;3588800;39;20046;-55
2021/04/07 07:21:16;;;;;;;24.55;16.50;;;;;;;1.42;60.64;95194.22;3587294;39;20094;-57
2021/04/07 07:23:47;;;;;;;22.33;16.52;;;;;;;1.49;60.25;95210.56;3589520;39;20316;-53
2021/04/07 07:26:17;;;;;;;27.55;17.70;;;;;;;1.54;60.46;95213.28;3587889;39;20321;-54
2021/04/07 07:28:57;;;;;;;25.48;15.02;;;;;;;1.66;60.16;95197.78;3598620;39;20052;-56
2021/04/07 07:31:43;;;;;;;20.38;13.73;;;;;;;1.70;59.96;95216.34;3590280;39;20053;-54
2021/04/07 07:34:30;;;;;;;21.35;13.80;;;;;;;1.78;59.87;95213.47;3589484;39;20085;-54
2021/04/07 07:36:59;;;;;;;19.90;12.63;;;;;;;1.88;59.00;95218.16;3589333;39;20044;-54
2021/04/07 07:39:30;;;;;;;17.88;12.73;;;;;;;1.97;57.97;95221.25;3591387;40;20394;-54
2021/04/07 07:42:10;;;;;;;14.68;9.27;;;;;;;2.02;56.82;95208.41;3589390;39;20051;-53
2021/04/07 07:44:40;;;;;;;11.15;8.90;;;;;;;2.15;55.57;95226.41;3587671;40;20056;-54
2021/04/07 07:47:22;;;;;;;11.57;8.80;;;;;;;2.36;54.82;95233.97;3582159;40;20043;-53
2021/04/07 07:49:59;;;;;;;11.40;7.90;;;;;;;2.61;53.21;95233.84;3589943;39;20044;-55
2021/04/07 07:52:36;;;;;;;9.80;8.43;;;;;;;2.77;52.97;95235.03;3595243;39;20289;-54
2021/04/07 07:55:16;;;;;;;10.27;7.20;;;;;;;3.03;52.12;95233.81;3586831;39;20057;-54
2021/04/07 07:57:57;;;;;;;10.30;7.57;;;;;;;3.50;51.20;95238.28;3586560;39;20048;-54
2021/04/07 08:00:25;;;;;;;9.35;7.57;;;;;;;3.79;49.24;95229.75;3587271;39;20062;-55
2021/04/07 08:02:54;;;;;;;8.30;7.18;;;;;;;4.04;46.51;95233.91;3588941;39;20050;-55
2021/04/07 08:05:24;;;;;;;8.00;7.20;;;;;;;3.99;45.46;95240.63;3597505;39;20405;-55
2021/04/07 08:07:52;;;;;;;9.05;7.13;;;;;;;3.73;45.05;95239.28;3589635;40;20053;-55
2021/04/07 08:10:20;;;;;;;6.93;6.07;;;;;;;3.57;47.36;95243.38;3585375;39;20045;-55
2021/04/07 08:12:47;;;;;;;6.25;5.65;;;;;;;3.35;45.64;95240.53;3589838;39;20036;-55
2021/04/07 08:15:15;;;;;;;7.50;6.45;;;;;;;3.00;47.12;95231.69;3589961;39;20040;-53
2021/04/07 08:17:42;;;;;;;7.45;6.65;;;;;;;2.89;48.09;95232.47;3587969;39;20044;-54
2021/04/07 08:20:10;;;;;;;6.90;5.90;;;;;;;2.94;46.93;95240.38;3590650;40;20383;-59
2021/04/07 08:22:39;;;;;;;8.38;6.18;;;;;;;3.01;47.29;95228.06;3576121;39;20060;-54
2021/04/07 08:25:07;;;;;;;9.07;7.35;;;;;;;3.15;46.68;95248.69;3575551;39;20052;-53
2021/04/07 08:27:39;;;;;;;8.43;7.03;;;;;;;2.96;47.45;95243.56;3587453;39;20058;-56
2021/04/07 08:30:08;;;;;;;8.55;6.93;;;;;;;2.95;46.79;95246.41;3577592;39;20073;-56
2021/04/07 08:32:37;;;;;;;8.13;6.85;;;;;;;2.96;46.36;95248.78;3582280;40;20060;-57
2021/04/07 08:35:06;;;;;;;9.13;7.05;;;;;;;2.97;47.04;95265.19;3589953;39;20401;-55
2021/04/07 08:37:34;;;;;;;9.00;7.28;;;;;;;3.20;46.83;95249.59;3587040;40;20052;-55
2021/04/07 08:40:15;;;;;;;10.65;8.23;;;;;;;3.44;47.28;95254.03;3589969;40;20114;-55
2021/04/07 08:42:43;;;;;;;10.20;6.82;;;;;;;3.51;46.47;95244.28;3587621;39;20043;-55
2021/04/07 08:45:12;;;;;;;10.13;7.75;;;;;;;3.90;46.02;95255.03;3586531;39;20051;-54
2021/04/07 08:47:52;;;;;;;10.02;6.88;;;;;;;4.12;45.51;95260.44;3582878;39;20435;-56
2021/04/07 08:50:30;;;;;;;7.68;6.97;;;;;;;4.17;44.32;95262.34;3577975;39;20058;-54
2021/04/07 08:52:57;;;;;;;8.15;6.65;;;;;;;4.26;44.09;95273.22;3577904;39;20329;-55
2021/04/07 08:55:27;;;;;;;7.03;6.28;;;;;;;3.95;43.26;95270.78;3581037;39;20074;-54
2021/04/07 08:58:03;;;;;;;6.47;5.88;;;;;;;4.18;42.50;95268.38;3584097;40;20052;-56
2021/04/07 09:00:38;;;;;;;8.75;6.72;;;;;;;4.27;42.20;95269.59;3574532;40;20064;-54
2021/04/07 09:03:14;;;;;;;6.37;5.77;;;;;;;4.14;41.77;95278.47;3583605;39;20406;-55
2021/04/07 09:05:46;;;;;;;9.60;5.32;;;;;;;4.22;43.00;95272.91;3586123;40;20054;-55
2021/04/07 09:08:20;;;;;;;8.30;6.20;;;;;;;4.20;43.45;95279.38;3584825;39;20043;-54
2021/04/07 09:10:49;;;;;;;8.05;6.70;;;;;;;3.97;43.42;95279.19;3584631;40;20056;-54
2021/04/07 09:13:32;;;;;;;6.80;6.13;;;;;;;3.92;42.72;95280.91;3573771;40;20072;-57
2021/04/07 09:16:08;;;;;;;8.52;5.65;;;;;;;3.60;41.36;95281.25;3594659;39;20164;-55
2021/04/07 09:18:45;;;;;;;12.75;7.55;;;;;;;3.50;42.89;95274.78;3583247;39;20056;-57
2021/04/07 09:21:16;;;;;;;5.47;4.97;;;;;;;3.30;43.13;95272.50;3585315;39;20052;-56
2021/04/07 09:23:52;;;;;;;6.55;5.95;;;;;;;3.36;43.02;95276.84;3584751;40;20056;-56
2021/04/07 09:26:22;;;;;;;7.97;6.85;;;;;;;3.15;43.79;95283.38;3585460;39;20056;-55
2021/04/07 09:28:51;;;;;;;8.25;6.75;;;;;;;2.92;44.15;95271.06;3581582;39;20052;-54
2021/04/07 09:31:27;;;;;;;7.30;6.55;;;;;;;2.92;43.51;95271.06;3583684;39;20052;-54
2021/04/07 09:33:56;;;;;;;6.18;5.55;;;;;;;3.03;43.07;95275.50;3582762;39;20082;-55
2021/04/07 09:36:29;;;;;;;6.97;5.43;;;;;;;2.99;42.19;95269.19;3586418;40;20316;-56
2021/04/07 09:39:04;;;;;;;6.20;5.60;;;;;;;3.12;41.71;95276.00;3585614;39;20059;-54
2021/04/07 09:41:39;;;;;;;6.55;4.55;;;;;;;3.36;41.86;95269.00;3586363;39;20283;-55
2021/04/07 09:44:09;;;;;;;5.38;4.88;;;;;;;3.47;40.27;95269.25;3575210;40;20052;-55
2021/04/07 09:46:37;;;;;;;7.78;4.82;;;;;;;3.51;39.62;95263.34;3584201;39;20041;-56
2021/04/07 09:49:10;;;;;;;5.68;5.05;;;;;;;3.67;39.78;95271.50;3585920;40;20056;-56
2021/04/07 09:51:46;;;;;;;7.25;5.07;;;;;;;3.90;38.24;95272.50;3585174;39;20428;-56
2021/04/07 09:54:14;;;;;;;;;;;;;;;3.77;38.71;95268.31;3588759;39;20056;-56
2021/04/07 09:56:58;;;;;;;5.22;4.72;;;;;;;3.89;39.60;95273.53;3595638;39;19943;-57
2021/04/07 09:59:45;;;;;;;9.98;5.50;;;;;;;4.29;39.06;95265.72;3583634;39;20052;-54
2021/04/07 10:02:26;;;;;;;8.02;5.20;;;;;;;4.66;39.62;95275.03;3585969;40;20048;-56
2021/04/07 10:04:56;;;;;;;11.90;6.38;;;;;;;4.64;41.56;95290.16;3574647;40;20802;-55
2021/04/07 10:07:28;;;;;;;9.05;7.18;;;;;;;4.38;43.63;95288.84;3586284;39;20052;-56
2021/04/07 10:10:00;;;;;;;6.70;5.80;;;;;;;4.58;42.37;95297.09;3586827;39;20201;-55
2021/04/07 10:12:30;;;;;;;9.27;6.40;;;;;;;5.00;42.34;95305.66;3584323;39;20058;-55
2021/04/07 10:14:59;;;;;;;5.32;4.78;;;;;;;5.30;42.49;95305.38;3583107;40;20072;-57
2021/04/07 10:17:29;;;;;;;8.20;5.35;;;;;;;5.51;41.57;95309.13;3580572;39;20052;-55
2021/04/07 10:20:07;;;;;;;7.50;4.80;;;;;;;5.86;41.01;95302.03;3581655;39;20040;-55
2021/04/07 10:22:36;;;;;;;7.05;5.88;;;;;;;5.85;41.74;95311.69;3585213;39;20066;-55
2021/04/07 10:25:19;;;;;;;8.95;6.20;;;;;;;5.54;41.58;95310.44;3583898;39;20060;-55
2021/04/07 10:27:47;;;;;;;9.98;6.50;;;;;;;4.99;41.92;95299.66;3575586;40;20046;-55
2021/04/07 10:30:20;;;;;;;9.32;7.25;;;;;;;4.65;44.38;95304.00;3589817;39;20062;-55
2021/04/07 10:32:50;;;;;;;8.55;5.80;;;;;;;4.66;43.68;95305.56;3582848;39;20055;-56
2021/04/07 10:35:17;;;;;;;7.70;5.78;;;;;;;4.72;44.45;95312.50;3582853;39;20066;-55
2021/04/07 10:37:51;;;;;;;9.60;6.20;;;;;;;4.31;45.36;95313.28;3582843;39;20691;-61
2021/04/07 10:40:21;;;;;;;7.63;6.10;;;;;;;4.37;44.78;95313.41;3587372;39;20115;-55
2021/04/07 10:42:49;;;;;;;7.07;6.35;;;;;;;4.46;44.44;95312.78;3586343;39;20044;-55
2021/04/07 10:45:18;;;;;;;6.85;5.05;;;;;;;4.49;43.42;95316.78;3584874;39;20063;-55
2021/04/07 10:47:47;;;;;;;4.93;3.88;;;;;;;4.76;39.39;95300.53;3573683;39;20048;-55
2021/04/07 10:50:16;;;;;;;5.80;5.22;;;;;;;4.87;41.42;95304.13;3584738;39;20045;-56
2021/04/07 10:52:45;;;;;;;6.00;5.45;;;;;;;4.86;40.40;95303.34;3584620;39;20040;-56
2021/04/07 10:55:21;;;;;;;6.18;5.03;;;;;;;5.04;40.19;95314.63;3582997;39;20332;-57
2021/04/07 10:57:53;;;;;;;8.23;5.32;;;;;;;4.96;40.48;95317.63;3576159;40;20037;-54
2021/04/07 11:00:23;;;;;;;5.82;4.75;;;;;;;4.72;41.92;95315.13;3580515;39;20058;-57
2021/04/07 11:02:52;;;;;;;10.10;4.90;;;;;;;4.28;47.43;95352.13;3593145;39;20060;-55
2021/04/07 11:05:28;;;;;;;11.63;6.43;;;;;;;2.96;56.56;95358.19;3588808;40;20040;-55
2021/04/07 11:08:03;;;;;;;9.93;6.88;;;;;;;2.36;61.65;95379.75;3585020;39;20056;-54
2021/04/07 11:10:50;;;;;;;13.55;7.20;;;;;;;2.04;62.71;95370.25;3592492;39;20052;-55
2021/04/07 11:13:20;;;;;;;12.50;7.13;;;;;;;2.03;63.04;95371.25;3572832;40;20056;-55
2021/04/07 11:15:47;;;;;;;8.10;5.28;;;;;;;2.28;60.61;95368.63;3583381;39;20051;-55
2021/04/07 11:18:15;;;;;;;5.90;5.03;;;;;;;2.67;58.62;95360.56;3577768;40;20049;-53
2021/04/07 11:20:44;;;;;;;6.07;4.35;;;;;;;2.98;58.21;95353.56;3585586;39;20051;-54
2021/04/07 11:23:12;;;;;;;5.18;4.05;;;;;;;3.33;54.07;95344.25;3587094;39;20051;-55
2021/04/07 11:25:40;;;;;;;5.13;4.10;;;;;;;3.60;54.72;95352.47;3585334;39;20067;-54
2021/04/07 11:28:18;;;;;;;5.88;4.85;;;;;;;3.89;54.80;95352.59;3584978;39;20054;-54
2021/04/07 11:31:25;;;;;;;5.53;4.90;;;;;;;4.12;51.37;95351.00;3584365;39;20096;-54
2021/04/07 11:34:03;;;;;;;5.07;4.35;;;;;;;4.37;50.16;95347.34;3581534;39;20034;-54
2021/04/07 11:44:26;;;;;;;;;;;;;;;4.12;46.30;95349.19;3584955;39;20055;-55
2021/04/07 11:46:54;;;;;;;7.22;4.18;;;;;;;4.42;45.50;95344.81;3583685;39;19939;-56